createdAt,value
2022-10-20T00:02:03.214Z,395.37
2022-10-20T00:04:34.789Z,402.93
2022-10-20T00:07:05.850Z,393.60
2022-10-20T00:09:39.342Z,377.83
2022-10-20T00:12:10.531Z,395.13
2022-10-20T00:14:43.441Z,394.37
2022-10-20T00:17:15.251Z,394.93
2022-10-20T00:19:46.375Z,396.30
2022-10-20T00:22:18.271Z,392.20
2022-10-20T00:24:51.289Z,394.30
2022-10-20T00:27:22.328Z,391.20
2022-10-20T00:29:53.803Z,388.17
2022-10-20T00:32:26.314Z,390.20
2022-10-20T00:34:57.761Z,401.10
2022-10-20T00:37:28.791Z,390.87
2022-10-20T00:40:02.045Z,396.53
2022-10-20T00:42:34.262Z,388.87
2022-10-20T00:45:16.162Z,388.23
2022-10-20T00:47:50.771Z,392.17
2022-10-20T00:50:25.036Z,388.70
2022-10-20T00:52:58.900Z,393.03
2022-10-20T00:55:36.680Z,387.50
2022-10-20T00:58:08.843Z,397.33
2022-10-20T01:00:42.117Z,388.30
2022-10-20T01:03:21.724Z,406.37
2022-10-20T01:05:53.234Z,383.10
2022-10-20T01:08:25.195Z,394.23
2022-10-20T01:11:06.651Z,398.73
2022-10-20T01:13:45.243Z,401.80
2022-10-20T01:16:22.035Z,398.93
2022-10-20T01:19:04.886Z,398.27
2022-10-20T01:21:59.249Z,397.00
2022-10-20T01:24:58.517Z,395.20
2022-10-20T01:27:44.225Z,395.40
2022-10-20T01:30:18.081Z,389.80
2022-10-20T01:33:13.561Z,398.20
2022-10-20T01:36:02.347Z,394.30
2022-10-20T01:38:42.516Z,387.67
2022-10-20T01:41:19.548Z,396.63
2022-10-20T01:43:53.899Z,387.50
2022-10-20T01:46:29.892Z,388.67
2022-10-20T01:49:04.260Z,393.70
2022-10-20T01:51:36.342Z,393.07
2022-10-20T01:54:08.021Z,388.17
2022-10-20T01:56:45.778Z,393.53
2022-10-20T01:59:36.207Z,391.70
2022-10-20T02:02:19.686Z,403.30
2022-10-20T02:05:05.675Z,393.37
2022-10-20T02:07:37.864Z,392.17
2022-10-20T02:10:16.501Z,398.90
2022-10-20T02:12:52.265Z,395.57
2022-10-20T02:15:28.310Z,390.40
2022-10-20T02:18:03.212Z,397.00
2022-10-20T02:20:35.764Z,383.83
2022-10-20T02:23:08.889Z,392.00
2022-10-20T02:25:41.998Z,384.67
2022-10-20T02:28:16.336Z,392.23
2022-10-20T02:30:50.665Z,380.33
2022-10-20T02:33:23.557Z,383.87
2022-10-20T02:35:59.456Z,396.33
2022-10-20T02:38:30.891Z,389.17
2022-10-20T02:41:02.340Z,384.77
2022-10-20T02:43:34.009Z,384.17
2022-10-20T02:46:06.943Z,384.03
2022-10-20T02:48:39.217Z,386.10
2022-10-20T02:51:12.201Z,389.27
2022-10-20T02:53:45.230Z,387.10
2022-10-20T02:56:16.961Z,381.97
2022-10-20T02:58:49.412Z,385.27
2022-10-20T03:01:23.830Z,387.70
2022-10-20T03:04:00.043Z,389.20
2022-10-20T03:06:32.089Z,392.97
2022-10-20T03:09:03.480Z,394.60
2022-10-20T03:11:35.245Z,397.30
2022-10-20T03:14:07.429Z,390.73
2022-10-20T03:16:40.688Z,388.77
2022-10-20T03:19:13.040Z,388.80
2022-10-20T03:21:44.538Z,385.33
2022-10-20T03:24:15.744Z,385.17
2022-10-20T03:26:46.773Z,374.30
2022-10-20T03:29:18.565Z,379.20
2022-10-20T03:31:53.726Z,377.27
2022-10-20T03:34:25.135Z,382.33
2022-10-20T03:36:56.479Z,380.40
2022-10-20T03:39:28.073Z,368.63
2022-10-20T03:42:00.232Z,377.73
2022-10-20T03:44:31.739Z,365.20
2022-10-20T03:47:04.453Z,370.83
2022-10-20T03:49:35.980Z,370.83
2022-10-20T03:52:11.114Z,369.43
2022-10-20T03:54:42.480Z,367.80
2022-10-20T03:57:13.461Z,375.73
2022-10-20T03:59:44.231Z,365.30
2022-10-20T04:02:34.788Z,365.90
2022-10-20T04:05:06.911Z,361.83
2022-10-20T04:07:38.578Z,369.10
2022-10-20T04:10:11.245Z,362.27
2022-10-20T04:12:42.444Z,369.50
2022-10-20T04:15:14.161Z,361.57
2022-10-20T04:17:47.178Z,372.67
2022-10-20T04:20:18.635Z,361.90
2022-10-20T04:22:49.823Z,364.60
2022-10-20T04:25:21.082Z,370.33
2022-10-20T04:27:52.680Z,368.80
2022-10-20T04:30:23.729Z,362.00
2022-10-20T04:32:56.914Z,363.07
2022-10-20T04:35:27.969Z,373.60
2022-10-20T04:37:59.981Z,364.30
2022-10-20T04:40:31.451Z,367.67
2022-10-20T04:43:03.645Z,357.60
2022-10-20T04:45:42.062Z,362.30
2022-10-20T04:48:15.300Z,355.30
2022-10-20T04:50:47.587Z,362.17
2022-10-20T04:53:18.895Z,362.53
2022-10-20T04:55:58.369Z,356.80
2022-10-20T04:58:29.833Z,365.67
2022-10-20T05:01:04.957Z,358.77
2022-10-20T05:03:40.780Z,362.60
2022-10-20T05:06:14.605Z,359.50
2022-10-20T05:08:47.436Z,363.17
2022-10-20T05:11:19.223Z,363.23
2022-10-20T05:13:50.753Z,363.43
2022-10-20T05:16:22.087Z,363.33
2022-10-20T05:18:55.078Z,359.87
2022-10-20T05:21:28.174Z,363.80
2022-10-20T05:24:01.038Z,361.93
2022-10-20T05:26:35.732Z,359.23
2022-10-20T05:29:08.436Z,353.23
2022-10-20T05:31:41.612Z,354.70
2022-10-20T05:34:15.429Z,358.37
2022-10-20T05:36:47.825Z,356.53
2022-10-20T05:39:19.431Z,352.33
2022-10-20T05:41:50.611Z,354.47
2022-10-20T05:44:21.646Z,352.63
2022-10-20T05:46:52.717Z,349.13
2022-10-20T05:49:26.290Z,350.13
2022-10-20T05:51:57.278Z,349.80
2022-10-20T05:54:28.457Z,357.03
2022-10-20T05:56:59.616Z,343.93
2022-10-20T05:59:30.721Z,345.17
2022-10-20T06:02:02.066Z,348.00
2022-10-20T06:04:35.765Z,337.20
2022-10-20T06:07:10.856Z,346.00
2022-10-20T06:09:42.676Z,348.80
2022-10-20T06:12:13.706Z,338.43
2022-10-20T06:14:44.657Z,330.37
2022-10-20T06:17:16.557Z,342.90
2022-10-20T06:19:49.945Z,341.47
2022-10-20T06:22:20.956Z,333.17
2022-10-20T06:24:51.950Z,338.17
2022-10-20T06:27:23.284Z,337.13
2022-10-20T06:29:55.867Z,336.80
2022-10-20T06:32:27.251Z,330.70
2022-10-20T06:35:01.676Z,331.77
2022-10-20T06:37:32.776Z,336.57
2022-10-20T06:40:03.875Z,328.80
2022-10-20T06:42:35.566Z,327.60
2022-10-20T06:45:07.377Z,326.27
2022-10-20T06:47:38.993Z,329.07
2022-10-20T06:50:13.659Z,335.50
2022-10-20T06:52:44.730Z,336.27
2022-10-20T06:55:15.712Z,337.27
2022-10-20T06:57:46.835Z,331.87
2022-10-20T07:00:19.210Z,343.80
2022-10-20T07:02:50.252Z,347.27
2022-10-20T07:05:23.265Z,348.47
2022-10-20T07:07:57.205Z,356.83
2022-10-20T07:10:29.090Z,357.33
2022-10-20T07:13:00.632Z,365.50
2022-10-20T07:15:33.803Z,351.50
2022-10-20T07:18:05.785Z,352.43
2022-10-20T07:20:38.957Z,367.97
2022-10-20T07:23:11.976Z,358.63
2022-10-20T07:25:43.001Z,362.37
2022-10-20T07:28:14.701Z,352.80
2022-10-20T07:30:47.465Z,361.63
2022-10-20T07:33:18.608Z,358.90
2022-10-20T07:35:53.259Z,360.07
2022-10-20T07:38:24.370Z,345.10
2022-10-20T07:41:00.648Z,350.70
2022-10-20T07:43:33.391Z,352.87
2022-10-20T07:46:05.241Z,356.73
2022-10-20T07:48:36.573Z,350.83
2022-10-20T07:51:33.913Z,356.13
2022-10-20T07:54:06.658Z,357.40
2022-10-20T07:56:40.280Z,351.97
2022-10-20T07:59:12.703Z,357.43
2022-10-20T08:01:44.476Z,358.07
2022-10-20T08:04:15.986Z,357.73
2022-10-20T08:06:49.329Z,364.33
2022-10-20T08:09:20.503Z,357.03
2022-10-20T08:11:52.929Z,353.20
2022-10-20T08:14:28.263Z,356.63
2022-10-20T08:16:59.417Z,354.73
2022-10-20T08:19:36.717Z,349.67
2022-10-20T08:22:09.702Z,357.57
2022-10-20T08:24:40.927Z,353.97
2022-10-20T08:27:11.934Z,347.93
2022-10-20T08:29:50.700Z,357.63
2022-10-20T08:32:31.257Z,350.37
2022-10-20T08:35:02.640Z,362.00
2022-10-20T08:37:37.630Z,349.97
2022-10-20T08:40:10.021Z,362.47
2022-10-20T08:42:46.016Z,351.10
2022-10-20T08:45:21.060Z,355.17
2022-10-20T08:47:54.973Z,360.00
2022-10-20T08:50:28.680Z,354.33
2022-10-20T08:53:03.206Z,358.23
2022-10-20T08:55:36.602Z,362.90
2022-10-20T08:58:10.319Z,363.63
2022-10-20T09:00:42.570Z,367.73
2022-10-20T09:03:22.598Z,363.13
2022-10-20T09:05:57.698Z,365.47
2022-10-20T09:08:34.295Z,371.97
2022-10-20T09:11:06.480Z,360.17
2022-10-20T09:13:39.680Z,367.93
2022-10-20T09:16:27.200Z,377.37
2022-10-20T09:19:08.932Z,368.30
2022-10-20T09:21:41.323Z,375.37
2022-10-20T09:24:14.664Z,367.23
2022-10-20T09:27:03.714Z,384.43
2022-10-20T09:29:43.612Z,366.07
2022-10-20T09:35:27.186Z,374.33
2022-10-20T09:38:03.276Z,385.90
2022-10-20T09:40:36.479Z,364.20
2022-10-20T09:43:16.117Z,381.57
2022-10-20T09:45:55.875Z,369.57
2022-10-20T09:48:30.427Z,369.77
2022-10-20T09:51:02.712Z,373.43
2022-10-20T09:53:37.340Z,375.10
2022-10-20T09:56:11.029Z,377.07
2022-10-20T09:58:44.679Z,375.13
2022-10-20T10:01:19.849Z,377.87
2022-10-20T10:03:52.572Z,381.63
2022-10-20T10:06:31.345Z,375.50
2022-10-20T10:09:05.126Z,367.10
2022-10-20T10:11:39.929Z,386.97
2022-10-20T10:14:24.473Z,373.87
2022-10-20T10:16:56.096Z,373.50
2022-10-20T10:19:31.611Z,385.93
2022-10-20T10:22:03.822Z,375.17
2022-10-20T10:24:46.982Z,379.03
2022-10-20T10:27:28.385Z,373.73
2022-10-20T10:30:20.299Z,380.70
2022-10-20T10:32:52.400Z,377.27
2022-10-20T10:35:31.067Z,374.80
2022-10-20T10:38:03.540Z,373.87
2022-10-20T10:40:39.227Z,370.07
2022-10-20T10:43:31.103Z,379.33
2022-10-20T10:46:06.568Z,368.43
2022-10-20T10:49:01.276Z,370.40
2022-10-20T10:51:45.957Z,378.33
2022-10-20T10:54:28.528Z,378.23
2022-10-20T10:57:06.921Z,359.13
2022-10-20T10:59:45.783Z,369.80
2022-10-20T11:02:40.746Z,380.70
2022-10-20T11:05:59.679Z,385.13
2022-10-20T11:08:46.311Z,375.10
2022-10-20T11:11:27.646Z,368.10
2022-10-20T11:14:10.048Z,381.43
2022-10-20T11:16:51.113Z,370.43
2022-10-20T11:20:02.789Z,369.00
2022-10-20T11:22:42.519Z,380.70
2022-10-20T11:25:25.401Z,373.27
2022-10-20T11:27:59.528Z,379.50
2022-10-20T11:30:32.089Z,373.20
2022-10-20T11:33:14.010Z,385.63
2022-10-20T11:35:50.309Z,377.90
2022-10-20T11:38:25.992Z,373.13
2022-10-20T11:41:04.539Z,372.13
2022-10-20T11:43:41.039Z,371.13
2022-10-20T11:46:16.192Z,367.07
2022-10-20T11:48:53.842Z,369.03
2022-10-20T11:52:01.351Z,384.33
2022-10-20T11:55:00.264Z,370.93
2022-10-20T11:57:50.062Z,361.50
2022-10-20T12:00:48.446Z,370.40
2022-10-20T12:03:47.669Z,365.40
2022-10-20T12:06:49.787Z,375.10
2022-10-20T12:09:34.500Z,365.70
2022-10-20T12:12:09.016Z,378.93
2022-10-20T12:14:44.280Z,375.83
2022-10-20T12:17:31.043Z,370.23
2022-10-20T12:20:43.965Z,380.10
2022-10-20T12:24:03.395Z,380.43
2022-10-20T12:27:07.328Z,369.53
2022-10-20T12:30:01.706Z,371.47
2022-10-20T12:33:12.619Z,382.03
2022-10-20T12:36:02.046Z,378.80
2022-10-20T12:38:36.248Z,374.77
2022-10-20T12:41:08.794Z,383.27
2022-10-20T12:43:53.809Z,389.40
2022-10-20T12:46:29.602Z,379.00
2022-10-20T12:49:08.072Z,380.50
2022-10-20T12:51:54.297Z,382.57
2022-10-20T12:54:32.212Z,378.03
2022-10-20T12:57:07.421Z,379.37
2022-10-20T12:59:43.752Z,377.23
2022-10-20T13:02:47.784Z,366.13
2022-10-20T13:05:48.617Z,375.33
2022-10-20T13:08:36.676Z,370.67
2022-10-20T13:11:43.865Z,377.07
2022-10-20T13:14:44.999Z,377.93
2022-10-20T13:17:39.039Z,382.70
2022-10-20T13:20:34.089Z,372.73
2022-10-20T13:23:05.546Z,364.70
2022-10-20T13:25:43.291Z,372.60
2022-10-20T13:28:22.311Z,365.57
2022-10-20T13:31:29.322Z,376.93
2022-10-20T13:34:06.887Z,366.37
2022-10-20T13:37:04.545Z,368.10
2022-10-20T13:39:45.210Z,372.70
2022-10-20T13:42:33.858Z,369.57
2022-10-20T13:45:15.629Z,362.87
2022-10-20T13:48:00.420Z,369.67
2022-10-20T13:50:35.150Z,373.93
2022-10-20T13:53:16.308Z,366.67
2022-10-20T13:56:05.222Z,365.43
2022-10-20T13:58:36.811Z,367.77
2022-10-20T14:01:10.134Z,365.77
2022-10-20T14:03:48.500Z,368.77
2022-10-20T14:06:43.148Z,367.97
2022-10-20T14:09:18.643Z,368.63
2022-10-20T14:11:52.210Z,373.33
2022-10-20T14:14:27.452Z,368.23
2022-10-20T14:17:02.424Z,369.50
2022-10-20T14:19:42.323Z,367.93
2022-10-20T14:22:22.298Z,370.33
2022-10-20T14:24:56.041Z,365.73
2022-10-20T14:27:30.201Z,380.77
2022-10-20T14:30:02.146Z,369.73
2022-10-20T14:32:42.774Z,362.17
2022-10-20T14:35:28.788Z,372.77
2022-10-20T14:38:04.967Z,377.23
2022-10-20T14:40:37.849Z,360.97
2022-10-20T14:43:15.798Z,369.47
2022-10-20T14:45:56.258Z,374.53
2022-10-20T14:48:33.038Z,380.50
2022-10-20T14:51:06.609Z,368.03
2022-10-20T14:53:38.078Z,385.90
2022-10-20T14:56:27.438Z,382.50
2022-10-20T14:59:03.632Z,370.20
2022-10-20T15:01:34.867Z,386.23
2022-10-20T15:04:16.874Z,384.77
2022-10-20T15:06:50.818Z,385.67
2022-10-20T15:09:32.531Z,379.53
2022-10-20T15:12:08.904Z,379.87
2022-10-20T15:14:48.179Z,375.23
2022-10-20T15:17:36.999Z,360.03
2022-10-20T15:20:38.820Z,369.60
2022-10-20T15:23:13.511Z,365.17
2022-10-20T15:25:50.073Z,378.60
2022-10-20T15:28:40.438Z,380.03
2022-10-20T15:31:20.075Z,368.33
2022-10-20T15:33:51.552Z,368.00
2022-10-20T15:36:30.911Z,366.50
2022-10-20T15:39:05.343Z,359.50
2022-10-20T15:41:38.119Z,359.17
2022-10-20T15:44:18.511Z,366.67
2022-10-20T15:46:49.666Z,367.47
2022-10-20T15:49:20.927Z,362.90
2022-10-20T15:51:53.825Z,358.83
2022-10-20T15:54:27.560Z,365.67
2022-10-20T15:56:59.315Z,367.63
2022-10-20T15:59:30.196Z,368.27
2022-10-20T16:02:01.369Z,367.20
2022-10-20T16:04:33.365Z,363.37
2022-10-20T16:07:04.489Z,374.53
2022-10-20T16:09:37.551Z,365.00
2022-10-20T16:12:09.107Z,355.17
2022-10-20T16:14:41.926Z,346.67
2022-10-20T16:17:13.280Z,360.93
2022-10-20T16:19:44.183Z,355.03
2022-10-20T16:22:15.451Z,352.87
2022-10-20T16:24:49.484Z,354.97
2022-10-20T16:27:21.436Z,360.77
2022-10-20T16:29:53.866Z,359.30
2022-10-20T16:32:25.843Z,362.67
2022-10-20T16:34:56.936Z,356.40
2022-10-20T16:37:28.062Z,359.37
2022-10-20T16:40:01.316Z,353.40
2022-10-20T16:42:33.901Z,352.60
2022-10-20T16:45:06.597Z,352.77
2022-10-20T16:47:39.075Z,347.97
2022-10-20T16:50:11.638Z,339.60
2022-10-20T16:52:42.693Z,334.20
2022-10-20T16:55:16.545Z,341.90
2022-10-20T16:57:47.437Z,346.40
2022-10-20T17:00:19.179Z,336.40
2022-10-20T17:02:50.529Z,346.20
2022-10-20T17:05:26.412Z,349.63
2022-10-20T17:07:57.998Z,335.20
2022-10-20T17:10:31.732Z,347.17
2022-10-20T17:13:02.777Z,336.63
2022-10-20T17:15:34.211Z,333.23
2022-10-20T17:18:05.176Z,327.87
2022-10-20T17:20:41.031Z,323.90
2022-10-20T17:23:12.194Z,315.30
2022-10-20T17:25:45.185Z,304.77
2022-10-20T17:28:16.274Z,315.30
2022-10-20T17:30:48.581Z,313.37
2022-10-20T17:33:20.088Z,300.70
2022-10-20T17:35:52.297Z,307.93
2022-10-20T17:38:23.759Z,310.30
2022-10-20T17:40:57.220Z,301.00
2022-10-20T17:43:28.249Z,309.67
2022-10-20T17:46:00.109Z,306.30
2022-10-20T17:48:31.646Z,297.57
2022-10-20T17:51:04.825Z,302.63
2022-10-20T17:53:36.826Z,294.17
2022-10-20T17:56:13.673Z,301.77
2022-10-20T17:58:46.401Z,312.87
2022-10-20T18:01:20.214Z,303.63
2022-10-20T18:03:56.013Z,308.77
2022-10-20T18:06:34.125Z,306.27
2022-10-20T18:09:07.669Z,329.43
2022-10-20T18:11:42.215Z,334.60
2022-10-20T18:14:14.015Z,335.20
2022-10-20T18:16:46.086Z,324.93
2022-10-20T18:19:18.887Z,331.50
2022-10-20T18:21:50.575Z,330.60
2022-10-20T18:24:22.297Z,340.77
2022-10-20T18:26:55.548Z,339.50
2022-10-20T18:29:26.693Z,331.77
2022-10-20T18:31:58.085Z,329.33
2022-10-20T18:34:29.105Z,326.03
2022-10-20T18:37:00.156Z,321.93
2022-10-20T18:39:32.625Z,326.20
2022-10-20T18:42:06.353Z,305.40
2022-10-20T18:44:37.778Z,308.53
2022-10-20T18:47:08.976Z,321.13
2022-10-20T18:49:40.136Z,318.50
2022-10-20T18:52:11.132Z,326.93
2022-10-20T18:54:42.727Z,326.23
2022-10-20T18:57:15.768Z,321.23
2022-10-20T18:59:47.215Z,320.90
2022-10-20T19:02:18.342Z,325.60
2022-10-20T19:04:50.069Z,323.33
2022-10-20T19:07:21.100Z,326.80
2022-10-20T19:09:55.495Z,335.97
2022-10-20T19:12:28.548Z,333.30
2022-10-20T19:14:59.582Z,336.83
2022-10-20T19:17:30.657Z,323.23
2022-10-20T19:20:01.717Z,329.20
2022-10-20T19:22:32.876Z,333.63
2022-10-20T19:25:03.887Z,333.77
2022-10-20T19:27:38.041Z,335.37
2022-10-20T19:30:10.233Z,334.63
2022-10-20T19:32:41.722Z,334.03
2022-10-20T19:35:14.802Z,339.20
2022-10-20T19:37:46.331Z,331.57
2022-10-20T19:40:17.760Z,332.20
2022-10-20T19:42:53.819Z,332.00
2022-10-20T19:45:24.825Z,324.80
2022-10-20T19:47:56.251Z,328.03
2022-10-20T19:50:27.757Z,323.43
2022-10-20T19:52:59.251Z,328.40
2022-10-20T19:55:30.844Z,319.17
2022-10-20T19:58:04.248Z,310.50
2022-10-20T20:00:35.460Z,316.13
2022-10-20T20:03:06.890Z,314.77
2022-10-20T20:05:38.009Z,316.07
2022-10-20T20:08:09.750Z,317.83
2022-10-20T20:10:41.555Z,318.40
2022-10-20T20:13:14.154Z,319.43
2022-10-20T20:15:46.552Z,306.30
2022-10-20T20:18:19.185Z,314.63
2022-10-20T20:20:52.010Z,308.40
2022-10-20T20:23:34.750Z,306.23
2022-10-20T20:26:16.029Z,301.80
2022-10-20T20:28:49.421Z,304.60
2022-10-20T20:31:20.896Z,294.23
2022-10-20T20:33:52.270Z,297.00
2022-10-20T20:36:24.367Z,290.20
2022-10-20T20:38:57.508Z,297.83
2022-10-20T20:41:31.239Z,298.77
2022-10-20T20:44:08.267Z,294.80
2022-10-20T20:46:40.005Z,289.43
2022-10-20T20:49:11.041Z,279.53
2022-10-20T20:51:41.882Z,277.97
2022-10-20T20:54:13.753Z,262.43
2022-10-20T20:56:45.564Z,280.70
2022-10-20T20:59:19.204Z,278.10
2022-10-20T21:01:51.215Z,268.07
2022-10-20T21:04:23.130Z,276.93
2022-10-20T21:07:02.104Z,274.30
2022-10-20T21:09:34.703Z,262.53
2022-10-20T21:12:06.894Z,255.13
2022-10-20T21:14:40.760Z,271.00
2022-10-20T21:17:11.811Z,277.50
2022-10-20T21:19:43.676Z,271.27
2022-10-20T21:22:15.109Z,273.20
2022-10-20T21:24:46.153Z,267.37
2022-10-20T21:27:17.160Z,260.17
2022-10-20T21:29:50.669Z,228.67
2022-10-20T21:32:22.622Z,183.63
2022-10-20T21:34:56.028Z,145.13
2022-10-20T21:37:27.137Z,130.43
2022-10-20T21:39:58.229Z,131.77
2022-10-20T21:42:29.282Z,143.40
2022-10-20T21:45:02.042Z,148.10
2022-10-20T21:47:33.079Z,139.07
2022-10-20T21:50:04.093Z,135.20
2022-10-20T21:52:36.217Z,138.80
2022-10-20T21:55:08.462Z,140.80
2022-10-20T21:57:40.362Z,150.50
2022-10-20T22:00:15.220Z,159.63
2022-10-20T22:02:46.701Z,181.37
2022-10-20T22:05:18.462Z,176.33
2022-10-20T22:07:49.937Z,159.53
2022-10-20T22:10:20.890Z,177.63
2022-10-20T22:12:52.240Z,169.10
2022-10-20T22:15:25.137Z,169.63
2022-10-20T22:17:56.853Z,165.83
2022-10-20T22:20:28.340Z,170.30
2022-10-20T22:23:02.638Z,167.37
2022-10-20T22:25:34.478Z,170.50
2022-10-20T22:28:06.300Z,171.50
2022-10-20T22:30:39.345Z,173.40
2022-10-20T22:33:10.288Z,160.13
2022-10-20T22:35:41.323Z,162.17
2022-10-20T22:38:12.414Z,155.37
2022-10-20T22:40:43.727Z,157.83
2022-10-20T22:43:15.085Z,147.90
2022-10-20T22:45:47.737Z,180.43
2022-10-20T22:48:18.716Z,178.23
2022-10-20T22:50:49.697Z,166.20
2022-10-20T22:53:20.964Z,160.53
2022-10-20T22:55:54.193Z,166.37
2022-10-20T22:58:25.643Z,162.27
2022-10-20T23:00:58.888Z,163.17
2022-10-20T23:03:29.938Z,163.33
2022-10-20T23:06:01.367Z,155.23
2022-10-20T23:08:32.770Z,158.30
2022-10-20T23:11:03.821Z,156.23
2022-10-20T23:13:37.492Z,155.70
2022-10-20T23:16:11.684Z,154.97
2022-10-20T23:18:43.030Z,155.27
2022-10-20T23:21:15.132Z,153.00
2022-10-20T23:23:47.587Z,158.43
2022-10-20T23:26:18.916Z,164.43
2022-10-20T23:28:50.516Z,165.47
2022-10-20T23:31:24.875Z,154.63
2022-10-20T23:33:59.131Z,158.53
2022-10-20T23:36:30.659Z,153.43
2022-10-20T23:39:03.865Z,158.30
2022-10-20T23:41:34.804Z,156.30
2022-10-20T23:44:06.104Z,153.03
2022-10-20T23:46:40.090Z,140.63
2022-10-20T23:49:11.741Z,141.93
2022-10-20T23:51:43.744Z,135.83
2022-10-20T23:54:15.229Z,120.00
2022-10-20T23:56:46.394Z,127.30
2022-10-20T23:59:17.536Z,120.50
